Time,TemperatureF,DewpointF,PressureIn,WindDirection,WindDirectionDegrees,WindSpeedMPH,WindSpeedGustMPH,Humidity,HourlyPrecipIn,Conditions,Clouds,dailyrainin,SoftwareType,DateUTC
2013-03-13 00:02:00,37.9,34.2,29.79,NNE,29,0.0,3.0,86,-99.99,,,0.00,meteohub,2013-03-13 04:02:00,
2013-03-13 00:03:00,37.9,34.2,29.79,NNE,17,0.0,3.0,86,-99.99,,,0.00,meteohub,2013-03-13 04:03:00,
2013-03-13 00:08:00,37.6,33.8,29.82,NE,52,0.0,4.0,86,-99.99,,,0.00,meteohub,2013-03-13 04:08:00,
2013-03-13 00:14:00,37.6,33.8,29.82,NE,52,0.0,4.0,86,-99.99,,,0.00,meteohub,2013-03-13 04:14:00,
2013-03-13 00:19:00,37.4,33.6,29.82,SW,223,0.0,4.0,86,-99.99,,,0.00,meteohub,2013-03-13 04:19:00,
2013-03-13 00:24:00,37.2,33.4,29.82,WNW,290,0.0,4.0,86,-99.99,,,0.00,meteohub,2013-03-13 04:24:00,
2013-03-13 00:29:00,37.0,33.3,29.82,WNW,290,0.0,4.0,86,-99.99,,,0.00,meteohub,2013-03-13 04:29:00,
2013-03-13 00:34:00,36.9,33.1,29.82,WNW,290,0.0,3.0,86,-99.99,,,0.00,meteohub,2013-03-13 04:34:00,
2013-03-13 00:39:00,36.9,33.1,29.82,WNW,290,0.0,0.0,86,-99.99,,,0.00,meteohub,2013-03-13 04:39:00,
2013-03-13 00:44:00,36.7,32.9,29.82,WNW,290,0.0,0.0,86,-99.99,,,0.00,meteohub,2013-03-13 04:44:00,
2013-03-13 00:49:00,36.7,32.9,29.82,WNW,287,0.0,0.0,86,-99.99,,,0.00,meteohub,2013-03-13 04:49:00,
2013-03-13 00:54:00,36.7,32.9,29.82,NW,320,0.0,0.0,86,-99.99,,,0.00,meteohub,2013-03-13 04:54:00,
2013-03-13 00:59:00,36.7,32.9,29.82,WNW,291,0.0,0.0,86,-99.99,,,0.00,meteohub,2013-03-13 04:59:00,
2013-03-13 01:04:00,36.5,32.7,29.82,WNW,291,0.0,0.0,86,-99.99,,,0.00,meteohub,2013-03-13 05:04:00,
2013-03-13 01:09:00,36.3,32.5,29.82,WNW,291,0.0,0.0,86,-99.99,,,0.00,meteohub,2013-03-13 05:09:00,
2013-03-13 01:14:00,36.1,32.4,29.82,WNW,291,0.0,0.0,86,-99.99,,,0.00,meteohub,2013-03-13 05:14:00,
2013-03-13 01:19:00,36.0,32.2,29.82,WNW,291,0.0,0.0,86,-99.99,,,0.00,meteohub,2013-03-13 05:19:00,
2013-03-13 01:24:00,36.0,32.2,29.82,WSW,252,0.0,0.0,86,-99.99,,,0.00,meteohub,2013-03-13 05:24:00,
2013-03-13 01:29:00,36.1,32.4,29.82,WSW,252,0.0,0.0,86,-99.99,,,0.00,meteohub,2013-03-13 05:29:00,
2013-03-13 01:34:00,36.1,32.4,29.82,SW,235,0.0,0.0,86,-99.99,,,0.00,meteohub,2013-03-13 05:34:00,
2013-03-13 01:39:00,35.8,32.0,29.82,SW,235,0.0,0.0,86,-99.99,,,0.00,meteohub,2013-03-13 05:39:00,
2013-03-13 01:44:00,35.6,31.8,29.82,SW,235,0.0,0.0,86,-99.99,,,0.00,meteohub,2013-03-13 05:44:00,
2013-03-13 01:49:00,35.4,31.6,29.82,SW,235,0.0,0.0,86,-99.99,,,0.00,meteohub,2013-03-13 05:49:00,
2013-03-13 01:54:00,35.4,31.6,29.82,SW,235,0.0,0.0,86,-99.99,,,0.00,meteohub,2013-03-13 05:54:00,
2013-03-13 01:59:00,35.2,31.5,29.82,SW,235,0.0,0.0,86,-99.99,,,0.00,meteohub,2013-03-13 05:59:00,
2013-03-13 02:05:00,35.2,31.5,29.82,SW,235,0.0,0.0,86,-99.99,,,0.00,meteohub,2013-03-13 06:05:00,
2013-03-13 02:10:00,35.1,31.3,29.82,SW,235,0.0,0.0,86,-99.99,,,0.00,meteohub,2013-03-13 06:10:00,
2013-03-13 02:15:00,35.1,31.3,29.82,SW,235,0.0,0.0,86,-99.99,,,0.00,meteohub,2013-03-13 06:15:00,
2013-03-13 02:20:00,35.1,31.3,29.82,SW,235,0.0,0.0,86,-99.99,,,0.00,meteohub,2013-03-13 06:20:00,
2013-03-13 02:25:00,35.1,31.3,29.82,SW,235,0.0,0.0,86,-99.99,,,0.00,meteohub,2013-03-13 06:25:00,
2013-03-13 02:30:00,34.9,31.1,29.82,SW,235,0.0,0.0,86,-99.99,,,0.00,meteohub,2013-03-13 06:30:00,
2013-03-13 02:35:00,34.9,31.1,29.82,SW,235,0.0,0.0,86,-99.99,,,0.00,meteohub,2013-03-13 06:35:00,
2013-03-13 02:40:00,34.9,31.1,29.82,SW,235,0.0,0.0,86,-99.99,,,0.00,meteohub,2013-03-13 06:40:00,
2013-03-13 02:45:00,34.9,31.1,29.82,SW,235,0.0,0.0,86,-99.99,,,0.00,meteohub,2013-03-13 06:45:00,
2013-03-13 02:50:00,34.9,31.1,29.82,SW,235,0.0,0.0,86,-99.99,,,0.00,meteohub,2013-03-13 06:50:00,
2013-03-13 02:55:00,34.7,30.9,29.82,NW,316,0.0,0.0,86,-99.99,,,0.00,meteohub,2013-03-13 06:55:00,
2013-03-13 03:00:00,34.5,30.7,29.82,NW,316,0.0,0.0,86,-99.99,,,0.00,meteohub,2013-03-13 07:00:00,
2013-03-13 03:05:00,34.5,30.7,29.82,NW,316,0.0,0.0,86,-99.99,,,0.00,meteohub,2013-03-13 07:05:00,
2013-03-13 03:10:00,34.5,30.7,29.82,NW,316,0.0,0.0,86,-99.99,,,0.00,meteohub,2013-03-13 07:10:00,
2013-03-13 03:15:00,34.3,30.6,29.82,NW,316,0.0,0.0,86,-99.99,,,0.00,meteohub,2013-03-13 07:15:00,
2013-03-13 03:20:00,34.3,30.6,29.82,NW,316,0.0,0.0,86,-99.99,,,0.00,meteohub,2013-03-13 07:20:00,
2013-03-13 03:25:00,34.3,30.6,29.82,NW,316,0.0,0.0,86,-99.99,,,0.00,meteohub,2013-03-13 07:25:00,
2013-03-13 03:30:00,34.3,30.6,29.82,NW,316,0.0,0.0,86,-99.99,,,0.00,meteohub,2013-03-13 07:30:00,
2013-03-13 03:35:00,34.3,30.6,29.82,NW,313,4.0,0.0,86,-99.99,,,0.00,meteohub,2013-03-13 07:35:00,
2013-03-13 03:40:00,34.2,30.4,29.82,NW,321,5.0,5.0,86,-99.99,,,0.00,meteohub,2013-03-13 07:40:00,
2013-03-13 03:45:00,34.2,30.4,29.82,WNW,300,3.0,5.0,86,-99.99,,,0.00,meteohub,2013-03-13 07:45:00,
2013-03-13 03:50:00,34.2,30.4,29.82,WNW,300,0.0,5.0,86,-99.99,,,0.00,meteohub,2013-03-13 07:50:00,
2013-03-13 03:55:00,34.2,30.4,29.82,WNW,300,0.0,5.0,86,-99.99,,,0.00,meteohub,2013-03-13 07:55:00,
2013-03-13 04:00:00,34.0,30.2,29.82,West,272,0.0,5.0,86,-99.99,,,0.00,meteohub,2013-03-13 08:00:00,
2013-03-13 04:08:00,34.0,30.2,29.82,North,0,0.0,4.0,86,-99.99,,,0.00,meteohub,2013-03-13 08:08:00,
2013-03-13 04:13:00,34.0,30.2,29.79,North,0,0.0,4.0,86,-99.99,,,0.00,meteohub,2013-03-13 08:13:00,
2013-03-13 04:18:00,34.0,30.2,29.79,North,0,0.0,3.0,86,-99.99,,,0.00,meteohub,2013-03-13 08:18:00,
2013-03-13 04:23:00,33.8,30.0,29.82,North,0,0.0,0.0,86,-99.99,,,0.00,meteohub,2013-03-13 08:23:00,
2013-03-13 04:28:00,33.8,30.0,29.82,North,0,0.0,0.0,86,-99.99,,,0.00,meteohub,2013-03-13 08:28:00,
2013-03-13 04:33:00,33.8,30.0,29.82,North,0,0.0,0.0,86,-99.99,,,0.00,meteohub,2013-03-13 08:33:00,
2013-03-13 04:38:00,33.8,30.0,29.82,North,0,0.0,0.0,86,-99.99,,,0.00,meteohub,2013-03-13 08:38:00,
2013-03-13 04:43:00,33.8,30.0,29.82,North,0,0.0,3.0,86,-99.99,,,0.00,meteohub,2013-03-13 08:43:00,
2013-03-13 04:48:00,33.8,30.0,29.82,North,0,0.0,3.0,86,-99.99,,,0.00,meteohub,2013-03-13 08:48:00,
2013-03-13 04:53:00,33.8,30.0,29.82,NW,316,0.0,2.0,86,-99.99,,,0.00,meteohub,2013-03-13 08:53:00,
2013-03-13 04:58:00,33.8,30.0,29.82,NW,316,0.0,2.0,86,-99.99,,,0.00,meteohub,2013-03-13 08:58:00,
2013-03-13 05:03:00,33.6,29.8,29.82,NW,314,0.0,2.0,86,-99.99,,,0.00,meteohub,2013-03-13 09:03:00,
2013-03-13 05:08:00,33.6,29.8,29.82,NW,317,0.0,2.0,86,-99.99,,,0.00,meteohub,2013-03-13 09:08:00,
2013-03-13 05:13:00,33.6,29.8,29.82,NW,321,0.0,4.0,86,-99.99,,,0.00,meteohub,2013-03-13 09:13:00,
2013-03-13 05:18:00,33.6,29.8,29.82,NW,321,0.0,4.0,86,-99.99,,,0.00,meteohub,2013-03-13 09:18:00,
2013-03-13 05:23:00,33.6,29.8,29.82,NW,320,0.0,4.0,86,-99.99,,,0.00,meteohub,2013-03-13 09:23:00,
2013-03-13 05:28:00,33.6,29.8,29.82,NW,305,0.0,4.0,86,-99.99,,,0.00,meteohub,2013-03-13 09:28:00,
2013-03-13 05:33:00,33.6,29.8,29.82,NW,320,0.0,4.0,86,-99.99,,,0.00,meteohub,2013-03-13 09:33:00,
2013-03-13 05:39:00,33.6,29.8,29.82,NW,320,0.0,4.0,86,-99.99,,,0.00,meteohub,2013-03-13 09:39:00,
2013-03-13 05:44:00,33.4,29.7,29.82,NW,317,0.0,5.0,86,-99.99,,,0.00,meteohub,2013-03-13 09:44:00,
2013-03-13 05:49:00,33.4,29.7,29.82,WNW,297,0.0,5.0,86,-99.99,,,0.00,meteohub,2013-03-13 09:49:00,
2013-03-13 05:54:00,33.4,29.7,29.82,NW,316,0.0,5.0,86,-99.99,,,0.00,meteohub,2013-03-13 09:54:00,
2013-03-13 05:59:00,33.4,29.7,29.82,WNW,301,0.0,5.0,86,0.00,,,0.00,meteohub,2013-03-13 09:59:00,
2013-03-13 06:04:00,33.4,29.7,29.82,NW,315,0.0,4.0,86,0.00,,,0.00,meteohub,2013-03-13 10:04:00,
2013-03-13 06:09:00,33.3,29.5,29.82,NW,320,0.0,4.0,86,0.00,,,0.00,meteohub,2013-03-13 10:09:00,
2013-03-13 06:14:00,33.3,29.5,29.82,NW,320,0.0,0.0,86,0.00,,,0.00,meteohub,2013-03-13 10:14:00,
2013-03-13 06:19:00,33.3,29.5,29.82,NW,314,0.0,3.0,86,0.00,,,0.00,meteohub,2013-03-13 10:19:00,
2013-03-13 06:24:00,33.3,29.5,29.82,WNW,291,0.0,3.0,86,0.00,,,0.00,meteohub,2013-03-13 10:24:00,
2013-03-13 06:29:00,33.3,29.5,29.82,NNW,335,0.0,3.0,86,0.00,,,0.00,meteohub,2013-03-13 10:29:00,
2013-03-13 06:34:00,33.3,29.5,29.82,NW,309,2.0,5.0,86,0.00,,,0.00,meteohub,2013-03-13 10:34:00,
2013-03-13 06:39:00,33.3,29.5,29.82,WNW,295,3.0,5.0,86,0.00,,,0.00,meteohub,2013-03-13 10:39:00,
2013-03-13 06:44:00,33.3,29.5,29.82,NW,322,0.0,8.0,86,0.00,,,0.00,meteohub,2013-03-13 10:44:00,
2013-03-13 06:49:00,33.3,29.5,29.82,NW,326,2.0,8.0,86,0.00,,,0.00,meteohub,2013-03-13 10:49:00,
2013-03-13 06:54:00,33.3,29.5,29.82,NW,326,0.0,8.0,86,0.00,,,0.00,meteohub,2013-03-13 10:54:00,
2013-03-13 06:59:00,33.3,29.5,29.82,NW,326,0.0,4.0,86,0.00,,,0.00,meteohub,2013-03-13 10:59:00,
2013-03-13 07:04:00,33.3,29.5,29.82,NW,307,0.0,3.0,86,0.00,,,0.00,meteohub,2013-03-13 11:04:00,
2013-03-13 07:09:00,33.3,29.5,29.82,NW,312,0.0,3.0,86,0.00,,,0.00,meteohub,2013-03-13 11:09:00,
2013-03-13 07:14:00,33.3,29.5,29.82,WNW,296,0.0,5.0,86,0.00,,,0.00,meteohub,2013-03-13 11:14:00,
2013-03-13 07:19:00,33.3,29.5,29.82,WSW,240,0.0,5.0,86,0.00,,,0.00,meteohub,2013-03-13 11:19:00,
2013-03-13 07:24:00,33.4,29.7,29.82,NW,306,3.0,5.0,86,0.00,,,0.00,meteohub,2013-03-13 11:24:00,
2013-03-13 07:29:00,33.4,29.7,29.82,WNW,293,0.0,5.0,86,0.00,,,0.00,meteohub,2013-03-13 11:29:00,
2013-03-13 07:34:00,33.6,29.8,29.82,WNW,287,4.0,5.0,86,0.00,,,0.00,meteohub,2013-03-13 11:34:00,
2013-03-13 07:39:00,34.2,30.4,29.82,NW,318,0.0,5.0,86,0.00,,,0.00,meteohub,2013-03-13 11:39:00,
2013-03-13 07:44:00,34.5,30.7,29.82,NW,317,0.0,5.0,86,0.00,,,0.00,meteohub,2013-03-13 11:44:00,
2013-03-13 07:49:00,35.1,31.3,29.82,NW,322,0.0,5.0,86,0.00,,,0.00,meteohub,2013-03-13 11:49:00,
2013-03-13 07:54:00,35.2,31.5,29.82,WNW,301,4.0,5.0,86,0.00,,,0.00,meteohub,2013-03-13 11:54:00,
2013-03-13 07:59:00,35.6,31.8,29.82,NNW,328,3.0,8.0,86,0.00,,,0.00,meteohub,2013-03-13 11:59:00,
2013-03-13 08:04:00,36.1,32.4,29.82,NW,315,8.0,11.0,86,0.00,,,0.00,meteohub,2013-03-13 12:04:00,
2013-03-13 08:09:00,36.3,32.5,29.79,WNW,282,5.0,11.0,86,0.00,,,0.00,meteohub,2013-03-13 12:09:00,
2013-03-13 08:14:00,36.3,32.5,29.79,WSW,238,3.0,11.0,86,0.00,,,0.00,meteohub,2013-03-13 12:14:00,
2013-03-13 08:19:00,36.1,32.4,29.79,WSW,245,4.0,11.0,86,0.00,,,0.00,meteohub,2013-03-13 12:19:00,
2013-03-13 08:24:00,36.5,32.7,29.79,NW,319,6.0,11.0,86,0.00,,,0.00,meteohub,2013-03-13 12:24:00,
2013-03-13 08:29:00,36.7,32.9,29.79,NW,325,0.0,8.0,86,0.00,,,0.00,meteohub,2013-03-13 12:29:00,
2013-03-13 08:34:00,36.9,32.7,29.79,NW,325,0.0,8.0,85,0.00,,,0.00,meteohub,2013-03-13 12:34:00,
2013-03-13 08:39:00,36.9,32.7,29.79,NW,321,6.0,8.0,85,0.00,,,0.00,meteohub,2013-03-13 12:39:00,
2013-03-13 08:44:00,36.9,32.7,29.79,NNW,337,6.0,8.0,85,0.00,,,0.00,meteohub,2013-03-13 12:44:00,
2013-03-13 08:49:00,36.3,32.2,29.79,NW,317,8.0,9.0,85,0.00,,,0.00,meteohub,2013-03-13 12:49:00,
2013-03-13 08:54:00,36.3,32.0,29.79,NNW,348,8.0,9.0,84,0.00,,,0.00,meteohub,2013-03-13 12:54:00,
2013-03-13 08:59:00,36.5,31.8,29.79,NNW,329,6.0,11.0,83,0.00,,,0.00,meteohub,2013-03-13 12:59:00,
2013-03-13 09:04:00,37.0,31.5,29.79,NNW,340,9.0,13.0,80,0.00,,,0.00,meteohub,2013-03-13 13:04:00,
2013-03-13 09:09:00,37.2,30.9,29.79,WNW,295,9.0,13.0,78,0.00,,,0.00,meteohub,2013-03-13 13:09:00,
2013-03-13 09:14:00,37.4,29.8,29.79,North,349,8.0,13.0,74,0.00,,,0.00,meteohub,2013-03-13 13:14:00,
2013-03-13 09:19:00,37.8,29.5,29.79,NNW,335,6.0,13.0,72,0.00,,,0.00,meteohub,2013-03-13 13:19:00,
2013-03-13 09:24:00,37.9,29.1,29.79,NNW,335,8.0,13.0,70,0.00,,,0.00,meteohub,2013-03-13 13:24:00,
2013-03-13 09:29:00,38.3,28.9,29.79,NW,324,4.0,11.0,69,0.00,,,0.00,meteohub,2013-03-13 13:29:00,
2013-03-13 09:34:00,37.9,28.8,29.79,NNW,333,4.0,11.0,69,0.00,,,0.00,meteohub,2013-03-13 13:34:00,
2013-03-13 09:39:00,37.9,29.1,29.79,NNW,338,0.0,11.0,70,0.00,,,0.00,meteohub,2013-03-13 13:39:00,
2013-03-13 09:44:00,37.9,29.1,29.79,WNW,290,2.0,11.0,70,0.00,,,0.00,meteohub,2013-03-13 13:44:00,
2013-03-13 09:49:00,37.8,29.1,29.79,NNW,344,3.0,11.0,71,0.00,,,0.00,meteohub,2013-03-13 13:49:00,
2013-03-13 09:54:00,37.6,29.1,29.79,WNW,295,3.0,13.0,71,0.00,,,0.00,meteohub,2013-03-13 13:54:00,
2013-03-13 09:59:00,37.4,28.6,29.79,NNW,330,0.0,13.0,70,0.00,,,0.00,meteohub,2013-03-13 13:59:00,
2013-03-13 10:04:00,37.4,28.6,29.79,WNW,297,4.0,13.0,70,0.00,,,0.00,meteohub,2013-03-13 14:04:00,
2013-03-13 10:09:00,37.4,28.2,29.79,NW,318,5.0,10.0,69,0.00,,,0.00,meteohub,2013-03-13 14:09:00,
2013-03-13 10:14:00,37.4,27.9,29.79,NNW,333,5.0,10.0,68,0.00,,,0.00,meteohub,2013-03-13 14:14:00,
2013-03-13 10:19:00,37.2,27.7,29.79,WNW,286,4.0,10.0,68,0.00,,,0.00,meteohub,2013-03-13 14:19:00,
2013-03-13 10:24:00,37.6,27.7,29.79,NW,310,6.0,10.0,67,0.00,,,0.00,meteohub,2013-03-13 14:24:00,
2013-03-13 10:29:00,37.6,27.7,29.79,NNW,328,5.0,8.0,67,0.00,,,0.00,meteohub,2013-03-13 14:29:00,
2013-03-13 10:34:00,37.6,27.7,29.79,NNW,341,4.0,8.0,67,0.00,,,0.00,meteohub,2013-03-13 14:34:00,
2013-03-13 10:39:00,37.9,27.7,29.79,NNW,334,4.0,9.0,66,0.00,,,0.00,meteohub,2013-03-13 14:39:00,
2013-03-13 10:44:00,37.9,27.7,29.79,NNW,345,5.0,9.0,66,0.00,,,0.00,meteohub,2013-03-13 14:44:00,
2013-03-13 10:49:00,37.8,26.6,29.79,NNW,330,8.0,9.0,64,0.00,,,0.00,meteohub,2013-03-13 14:49:00,
2013-03-13 10:54:00,37.8,26.2,29.79,NW,316,9.0,9.0,63,0.00,,,0.00,meteohub,2013-03-13 14:54:00,
2013-03-13 10:59:00,37.8,26.6,29.79,NW,317,5.0,10.0,64,0.00,,,0.00,meteohub,2013-03-13 14:59:00,
2013-03-13 11:04:00,37.8,26.6,29.79,NNW,330,0.0,10.0,64,0.00,,,0.00,meteohub,2013-03-13 15:04:00,
2013-03-13 11:09:00,37.6,26.1,29.79,WNW,293,3.0,10.0,63,0.00,,,0.00,meteohub,2013-03-13 15:09:00,
2013-03-13 11:14:00,37.6,25.7,29.79,NW,310,4.0,11.0,62,0.00,,,0.00,meteohub,2013-03-13 15:14:00,
2013-03-13 11:19:00,37.9,26.4,29.79,NNW,339,6.0,11.0,63,0.00,,,0.00,meteohub,2013-03-13 15:19:00,
2013-03-13 11:24:00,38.1,27.0,29.79,NNW,330,5.0,11.0,64,0.00,,,0.00,meteohub,2013-03-13 15:24:00,
2013-03-13 11:29:00,38.5,26.2,29.79,NNW,337,6.0,8.0,61,0.00,,,0.00,meteohub,2013-03-13 15:29:00,
2013-03-13 11:34:00,39.0,25.2,29.79,NNW,332,8.0,9.0,57,0.00,,,0.00,meteohub,2013-03-13 15:34:00,
2013-03-13 11:39:00,39.2,24.4,29.79,NW,324,4.0,9.0,55,0.00,,,0.00,meteohub,2013-03-13 15:39:00,
2013-03-13 11:44:00,39.2,24.8,29.79,WNW,293,4.0,9.0,56,0.00,,,0.00,meteohub,2013-03-13 15:44:00,
2013-03-13 11:49:00,39.2,24.4,29.79,NW,322,11.0,11.0,55,0.00,,,0.00,meteohub,2013-03-13 15:49:00,
2013-03-13 11:54:00,38.7,23.4,29.79,NNW,330,6.0,11.0,54,0.00,,,0.00,meteohub,2013-03-13 15:54:00,
2013-03-13 11:59:00,38.5,22.8,29.79,NNW,327,6.0,11.0,53,0.00,,,0.00,meteohub,2013-03-13 15:59:00,
2013-03-13 12:04:00,38.5,23.4,29.79,NNW,337,6.0,11.0,54,0.00,,,0.00,meteohub,2013-03-13 16:04:00,
2013-03-13 12:09:00,38.5,23.7,29.79,WNW,283,4.0,11.0,55,0.00,,,0.00,meteohub,2013-03-13 16:09:00,
2013-03-13 12:14:00,38.7,24.3,29.79,NNW,337,6.0,11.0,56,0.00,,,0.00,meteohub,2013-03-13 16:14:00,
2013-03-13 12:19:00,38.7,24.3,29.79,NW,322,3.0,11.0,56,0.00,,,0.00,meteohub,2013-03-13 16:19:00,
2013-03-13 12:24:00,38.8,25.0,29.79,NNW,334,4.0,11.0,57,0.00,,,0.00,meteohub,2013-03-13 16:24:00,
2013-03-13 12:29:00,38.8,24.4,29.79,NW,324,0.0,11.0,56,0.00,,,0.00,meteohub,2013-03-13 16:29:00,
2013-03-13 12:34:00,38.7,24.3,29.79,WNW,303,8.0,11.0,56,0.00,,,0.00,meteohub,2013-03-13 16:34:00,
2013-03-13 12:39:00,38.5,24.1,29.79,North,9,0.0,8.0,56,0.00,,,0.00,meteohub,2013-03-13 16:39:00,
2013-03-13 12:44:00,38.3,23.5,29.79,NNW,327,0.0,8.0,55,0.00,,,0.00,meteohub,2013-03-13 16:44:00,
2013-03-13 12:49:00,38.3,23.9,29.79,NNW,330,5.0,8.0,56,0.00,,,0.00,meteohub,2013-03-13 16:49:00,
2013-03-13 12:54:00,38.8,24.4,29.79,NW,307,0.0,6.0,56,0.00,,,0.00,meteohub,2013-03-13 16:54:00,
2013-03-13 12:59:00,39.2,23.5,29.79,North,0,6.0,6.0,53,0.00,,,0.00,meteohub,2013-03-13 16:59:00,
2013-03-13 13:04:00,39.2,23.0,29.79,WNW,295,6.0,8.0,52,0.00,,,0.00,meteohub,2013-03-13 17:04:00,
2013-03-13 13:09:00,39.2,23.0,29.79,NW,312,3.0,9.0,52,0.00,,,0.00,meteohub,2013-03-13 17:09:00,
2013-03-13 13:14:00,39.0,22.8,29.79,NW,321,6.0,9.0,52,0.00,,,0.00,meteohub,2013-03-13 17:14:00,
2013-03-13 13:19:00,39.2,22.1,29.79,West,281,3.0,10.0,50,0.00,,,0.00,meteohub,2013-03-13 17:19:00,
2013-03-13 13:24:00,39.7,22.6,29.79,WSW,240,3.0,11.0,50,0.00,,,0.00,meteohub,2013-03-13 17:24:00,
2013-03-13 13:29:00,39.6,21.9,29.79,NW,317,7.0,11.0,49,0.00,,,0.00,meteohub,2013-03-13 17:29:00,
2013-03-13 13:34:00,40.5,22.3,29.79,NW,308,6.0,11.0,48,0.00,,,0.00,meteohub,2013-03-13 17:34:00,
2013-03-13 13:39:00,40.1,21.6,29.76,NW,308,4.0,12.0,47,0.00,,,0.00,meteohub,2013-03-13 17:39:00,
2013-03-13 13:44:00,39.9,20.8,29.76,NNW,330,3.0,12.0,46,0.00,,,0.00,meteohub,2013-03-13 17:44:00,
2013-03-13 13:49:00,39.7,20.7,29.76,NW,325,4.0,13.0,46,0.00,,,0.00,meteohub,2013-03-13 17:49:00,
2013-03-13 13:54:00,39.9,20.8,29.76,NNW,340,3.0,13.0,46,0.00,,,0.00,meteohub,2013-03-13 17:54:00,
2013-03-13 13:59:00,40.6,21.0,29.76,NW,325,4.0,13.0,45,0.00,,,0.00,meteohub,2013-03-13 17:59:00,
2013-03-13 14:04:00,41.0,20.8,29.76,NNW,343,6.0,13.0,44,0.00,,,0.00,meteohub,2013-03-13 18:04:00,
2013-03-13 14:09:00,41.4,21.0,29.76,NE,48,0.0,11.0,44,0.00,,,0.00,meteohub,2013-03-13 18:09:00,
2013-03-13 14:14:00,41.5,21.2,29.76,South,178,0.0,13.0,44,0.00,,,0.00,meteohub,2013-03-13 18:14:00,
2013-03-13 14:19:00,41.5,20.7,29.76,NW,324,3.0,13.0,43,0.00,,,0.00,meteohub,2013-03-13 18:19:00,
2013-03-13 14:24:00,41.0,20.3,29.76,NW,313,4.0,13.0,43,0.00,,,0.00,meteohub,2013-03-13 18:24:00,
2013-03-13 14:29:00,41.5,20.1,29.76,NNW,331,7.0,11.0,42,0.00,,,0.00,meteohub,2013-03-13 18:29:00,
2013-03-13 14:34:00,42.3,20.8,29.76,WNW,283,3.0,8.0,42,0.00,,,0.00,meteohub,2013-03-13 18:34:00,
2013-03-13 14:39:00,42.8,20.7,29.76,NNE,30,4.0,11.0,41,0.00,,,0.00,meteohub,2013-03-13 18:39:00,
2013-03-13 14:44:00,42.1,19.6,29.76,NNW,329,6.0,11.0,40,0.00,,,0.00,meteohub,2013-03-13 18:44:00,
2013-03-13 14:49:00,41.2,19.2,29.76,West,269,6.0,13.0,41,0.00,,,0.00,meteohub,2013-03-13 18:49:00,
2013-03-13 14:54:00,40.8,18.9,29.76,NW,326,4.0,13.0,41,0.00,,,0.00,meteohub,2013-03-13 18:54:00,
2013-03-13 14:59:00,40.3,18.5,29.76,NNW,332,0.0,13.0,41,0.00,,,0.00,meteohub,2013-03-13 18:59:00,
2013-03-13 15:04:00,40.1,18.9,29.76,WNW,293,6.0,9.0,42,0.00,,,0.00,meteohub,2013-03-13 19:04:00,
2013-03-13 15:09:00,40.1,18.3,29.76,WNW,297,6.0,12.0,41,0.00,,,0.00,meteohub,2013-03-13 19:09:00,
2013-03-13 15:14:00,39.9,18.1,29.76,NNW,333,7.0,12.0,41,0.00,,,0.00,meteohub,2013-03-13 19:14:00,
2013-03-13 15:19:00,39.7,18.0,29.76,NNW,342,5.0,12.0,41,0.00,,,0.00,meteohub,2013-03-13 19:19:00,
2013-03-13 15:24:00,39.6,17.8,29.76,NNW,330,5.0,12.0,41,0.00,,,0.00,meteohub,2013-03-13 19:24:00,
2013-03-13 15:29:00,39.4,17.6,29.76,WSW,238,3.0,10.0,41,0.00,,,0.00,meteohub,2013-03-13 19:29:00,
2013-03-13 15:34:00,39.4,17.6,29.76,NNW,340,8.0,10.0,41,0.00,,,0.00,meteohub,2013-03-13 19:34:00,
2013-03-13 15:39:00,39.6,17.8,29.76,NNW,344,11.0,11.0,41,0.00,,,0.00,meteohub,2013-03-13 19:39:00,
2013-03-13 15:44:00,40.1,18.3,29.76,NNW,331,6.0,13.0,41,0.00,,,0.00,meteohub,2013-03-13 19:44:00,
2013-03-13 15:49:00,39.9,18.7,29.76,NW,325,3.0,13.0,42,0.00,,,0.00,meteohub,2013-03-13 19:49:00,
2013-03-13 15:54:00,39.7,18.0,29.76,NNW,339,14.0,14.0,41,0.00,,,0.00,meteohub,2013-03-13 19:54:00,
2013-03-13 15:59:00,39.2,18.0,29.76,NW,321,4.0,14.0,42,0.00,,,0.00,meteohub,2013-03-13 19:59:00,
2013-03-13 16:04:00,39.2,18.0,29.76,NNW,341,0.0,14.0,42,0.00,,,0.00,meteohub,2013-03-13 20:04:00,
2013-03-13 16:09:00,39.0,17.8,29.76,NNW,336,2.0,14.0,42,0.00,,,0.00,meteohub,2013-03-13 20:09:00,
2013-03-13 16:14:00,39.0,17.2,29.76,WNW,300,0.0,8.0,41,0.00,,,0.00,meteohub,2013-03-13 20:14:00,
2013-03-13 16:19:00,38.8,17.1,29.76,NW,307,3.0,8.0,41,0.00,,,0.00,meteohub,2013-03-13 20:19:00,
2013-03-13 16:24:00,39.0,16.7,29.76,South,170,0.0,8.0,40,0.00,,,0.00,meteohub,2013-03-13 20:24:00,
2013-03-13 16:30:00,39.0,17.2,29.76,NW,304,0.0,8.0,41,0.00,,,0.00,meteohub,2013-03-13 20:30:00,
2013-03-13 16:35:00,38.8,16.5,29.76,NW,308,9.0,11.0,40,0.00,,,0.00,meteohub,2013-03-13 20:35:00,
2013-03-13 16:40:00,38.8,16.5,29.76,NNW,327,0.0,11.0,40,0.00,,,0.00,meteohub,2013-03-13 20:40:00,
2013-03-13 16:44:00,38.8,16.5,29.76,NW,326,0.0,11.0,40,0.00,,,0.00,meteohub,2013-03-13 20:44:00,
2013-03-13 16:49:00,38.7,16.3,29.76,WNW,294,4.0,11.0,40,0.00,,,0.00,meteohub,2013-03-13 20:49:00,
2013-03-13 16:54:00,38.7,17.1,29.76,WNW,297,0.0,11.0,41,0.00,,,0.00,meteohub,2013-03-13 20:54:00,
2013-03-13 16:59:00,38.7,16.3,29.76,WNW,302,0.0,12.0,40,0.00,,,0.00,meteohub,2013-03-13 20:59:00,
2013-03-13 17:05:00,38.7,16.3,29.76,NNW,341,11.0,12.0,40,0.00,,,0.00,meteohub,2013-03-13 21:05:00,
2013-03-13 17:10:00,38.5,16.3,29.76,SW,234,3.0,12.0,40,0.00,,,0.00,meteohub,2013-03-13 21:10:00,
2013-03-13 17:14:00,38.3,15.4,29.76,NNW,341,4.0,12.0,39,0.00,,,0.00,meteohub,2013-03-13 21:14:00,
2013-03-13 17:20:00,38.1,16.0,29.76,NW,320,3.0,12.0,40,0.00,,,0.00,meteohub,2013-03-13 21:20:00,
2013-03-13 17:25:00,37.9,15.8,29.76,NW,305,0.0,10.0,40,0.00,,,0.00,meteohub,2013-03-13 21:25:00,
2013-03-13 17:30:00,37.9,16.3,29.76,WNW,294,0.0,8.0,41,0.00,,,0.00,meteohub,2013-03-13 21:30:00,
2013-03-13 17:35:00,37.9,16.3,29.76,WNW,287,0.0,8.0,41,0.00,,,0.00,meteohub,2013-03-13 21:35:00,
2013-03-13 17:40:00,37.8,16.2,29.76,NNW,341,0.0,8.0,41,0.00,,,0.00,meteohub,2013-03-13 21:40:00,
2013-03-13 17:45:00,37.8,16.2,29.76,NW,320,0.0,6.0,41,0.00,,,0.00,meteohub,2013-03-13 21:45:00,
2013-03-13 17:50:00,37.6,16.0,29.76,WNW,287,0.0,8.0,41,0.00,,,0.00,meteohub,2013-03-13 21:50:00,
2013-03-13 17:55:00,37.6,16.0,29.76,NW,325,0.0,8.0,41,0.00,,,0.00,meteohub,2013-03-13 21:55:00,
2013-03-13 18:00:00,37.4,15.8,29.76,NW,316,0.0,8.0,41,0.00,,,0.00,meteohub,2013-03-13 22:00:00,
2013-03-13 18:05:00,37.4,15.8,29.76,NW,305,0.0,8.0,41,0.00,,,0.00,meteohub,2013-03-13 22:05:00,
2013-03-13 18:10:00,37.2,15.6,29.76,NW,316,0.0,8.0,41,0.00,,,0.00,meteohub,2013-03-13 22:10:00,
2013-03-13 18:15:00,37.0,15.4,29.76,WNW,292,4.0,6.0,41,0.00,,,0.00,meteohub,2013-03-13 22:15:00,
2013-03-13 18:20:00,37.0,15.4,29.76,West,262,0.0,6.0,41,0.00,,,0.00,meteohub,2013-03-13 22:20:00,
2013-03-13 18:25:00,36.9,15.4,29.76,NNW,333,0.0,8.0,41,0.00,,,0.00,meteohub,2013-03-13 22:25:00,
2013-03-13 18:30:00,36.5,15.1,29.76,NW,310,0.0,8.0,41,0.00,,,0.00,meteohub,2013-03-13 22:30:00,
2013-03-13 18:35:00,36.3,15.4,29.76,NW,310,0.0,8.0,42,0.00,,,0.00,meteohub,2013-03-13 22:35:00,
2013-03-13 18:40:00,36.1,15.3,29.76,WNW,298,0.0,6.0,42,0.00,,,0.00,meteohub,2013-03-13 22:40:00,
2013-03-13 18:45:00,36.0,15.1,29.76,WNW,285,0.0,5.0,42,0.00,,,0.00,meteohub,2013-03-13 22:45:00,
2013-03-13 18:50:00,35.8,14.9,29.76,NNW,346,0.0,5.0,42,0.00,,,0.00,meteohub,2013-03-13 22:50:00,
2013-03-13 18:55:00,35.6,14.7,29.76,NNW,339,0.0,5.0,42,0.00,,,0.00,meteohub,2013-03-13 22:55:00,
2013-03-13 19:00:00,35.4,15.1,29.76,NNW,327,3.0,5.0,43,0.00,,,0.00,meteohub,2013-03-13 23:00:00,
2013-03-13 19:05:00,35.2,14.9,29.76,NW,317,0.0,5.0,43,0.00,,,0.00,meteohub,2013-03-13 23:05:00,
2013-03-13 19:10:00,35.1,14.9,29.79,NW,323,0.0,4.0,43,0.00,,,0.00,meteohub,2013-03-13 23:10:00,
2013-03-13 19:15:00,34.9,14.7,29.79,NW,323,0.0,4.0,43,0.00,,,0.00,meteohub,2013-03-13 23:15:00,
2013-03-13 19:20:00,34.7,14.5,29.79,NNW,337,0.0,4.0,43,0.00,,,0.00,meteohub,2013-03-13 23:20:00,
2013-03-13 19:25:00,34.5,14.4,29.79,NNW,337,0.0,0.0,43,0.00,,,0.00,meteohub,2013-03-13 23:25:00,
2013-03-13 19:30:00,34.5,14.9,29.79,NNW,337,0.0,0.0,44,0.00,,,0.00,meteohub,2013-03-13 23:30:00,
2013-03-13 19:35:00,34.3,14.7,29.79,NNW,337,0.0,0.0,44,0.00,,,0.00,meteohub,2013-03-13 23:35:00,
2013-03-13 19:40:00,34.0,14.4,29.79,NNW,337,0.0,0.0,44,0.00,,,0.00,meteohub,2013-03-13 23:40:00,
2013-03-13 19:45:00,34.0,14.4,29.79,NNW,337,0.0,0.0,44,0.00,,,0.00,meteohub,2013-03-13 23:45:00,
2013-03-13 19:50:00,33.8,14.2,29.79,NNW,337,0.0,0.0,44,0.00,,,0.00,meteohub,2013-03-13 23:50:00,
2013-03-13 19:55:00,33.8,14.2,29.79,NNW,337,0.0,0.0,44,0.00,,,0.00,meteohub,2013-03-13 23:55:00,
2013-03-13 20:00:00,33.6,14.5,29.79,NNW,337,0.0,0.0,45,0.00,,,0.00,meteohub,2013-03-14 00:00:00,
2013-03-13 20:09:00,33.3,14.2,29.79,NNW,337,0.0,0.0,45,0.00,,,0.00,meteohub,2013-03-14 00:09:00,
2013-03-13 20:14:00,33.1,14.0,29.79,NNW,337,0.0,0.0,45,0.00,,,0.00,meteohub,2013-03-14 00:14:00,
2013-03-13 20:19:00,32.7,14.2,29.79,NNW,337,0.0,0.0,46,0.00,,,0.00,meteohub,2013-03-14 00:19:00,
2013-03-13 20:24:00,32.5,14.0,29.79,NNW,337,0.0,0.0,46,0.00,,,0.00,meteohub,2013-03-14 00:24:00,
2013-03-13 20:29:00,32.4,13.8,29.79,NNW,337,0.0,0.0,46,0.00,,,0.00,meteohub,2013-03-14 00:29:00,
2013-03-13 20:34:00,32.2,14.2,29.79,NNW,337,0.0,0.0,47,0.00,,,0.00,meteohub,2013-03-14 00:34:00,
2013-03-13 20:39:00,32.2,14.2,29.79,NNW,337,0.0,0.0,47,0.00,,,0.00,meteohub,2013-03-14 00:39:00,
2013-03-13 20:44:00,32.2,14.2,29.79,NNW,337,0.0,0.0,47,0.00,,,0.00,meteohub,2013-03-14 00:44:00,
2013-03-13 20:49:00,32.0,14.0,29.79,NNW,337,0.0,0.0,47,0.00,,,0.00,meteohub,2013-03-14 00:49:00,
2013-03-13 20:54:00,31.8,13.8,29.79,NNW,337,0.0,0.0,47,0.00,,,0.00,meteohub,2013-03-14 00:54:00,
2013-03-13 20:59:00,31.6,14.2,29.79,NNW,337,0.0,0.0,48,0.00,,,0.00,meteohub,2013-03-14 00:59:00,
2013-03-13 21:04:00,31.5,14.0,29.79,NNW,337,0.0,0.0,48,0.00,,,0.00,meteohub,2013-03-14 01:04:00,
2013-03-13 21:14:00,31.1,14.2,29.79,NNW,337,0.0,0.0,49,0.00,,,0.00,meteohub,2013-03-14 01:14:00,
2013-03-13 21:19:00,31.1,14.2,29.79,NNW,337,0.0,0.0,49,0.00,,,0.00,meteohub,2013-03-14 01:19:00,
2013-03-13 21:24:00,30.6,14.2,29.79,NNW,337,0.0,0.0,50,0.00,,,0.00,meteohub,2013-03-14 01:24:00,
2013-03-13 21:29:00,30.6,14.2,29.79,NNW,337,0.0,0.0,50,0.00,,,0.00,meteohub,2013-03-14 01:29:00,
2013-03-13 21:34:00,30.4,14.0,29.79,NNW,337,0.0,0.0,50,0.00,,,0.00,meteohub,2013-03-14 01:34:00,
2013-03-13 21:39:00,30.2,14.2,29.79,NNW,337,0.0,0.0,51,0.00,,,0.00,meteohub,2013-03-14 01:39:00,
2013-03-13 21:44:00,30.2,14.2,29.79,NNW,337,0.0,0.0,51,0.00,,,0.00,meteohub,2013-03-14 01:44:00,
2013-03-13 21:49:00,29.8,14.0,29.79,NNW,337,0.0,0.0,51,0.00,,,0.00,meteohub,2013-03-14 01:49:00,
2013-03-13 21:54:00,29.8,14.0,29.79,NNW,337,0.0,0.0,51,0.00,,,0.00,meteohub,2013-03-14 01:54:00,
2013-03-13 21:59:00,29.7,13.8,29.79,NNW,337,0.0,0.0,51,0.00,,,0.00,meteohub,2013-03-14 01:59:00,
2013-03-13 22:04:00,29.7,13.8,29.79,NNW,337,0.0,0.0,51,0.00,,,0.00,meteohub,2013-03-14 02:04:00,
2013-03-13 22:10:00,29.7,13.8,29.79,NNW,337,0.0,0.0,51,0.00,,,0.00,meteohub,2013-03-14 02:10:00,
2013-03-13 22:15:00,29.5,13.6,29.79,NNW,337,0.0,0.0,51,0.00,,,0.00,meteohub,2013-03-14 02:15:00,
2013-03-13 22:20:00,29.5,14.0,29.79,NNW,337,0.0,0.0,52,0.00,,,0.00,meteohub,2013-03-14 02:20:00,
2013-03-13 22:25:00,29.7,14.2,29.79,NNW,337,0.0,0.0,52,0.00,,,0.00,meteohub,2013-03-14 02:25:00,
2013-03-13 22:30:00,29.7,14.2,29.79,NNW,337,0.0,0.0,52,0.00,,,0.00,meteohub,2013-03-14 02:30:00,
2013-03-13 22:35:00,29.7,14.2,29.79,NNW,337,0.0,0.0,52,0.00,,,0.00,meteohub,2013-03-14 02:35:00,
2013-03-13 22:40:00,29.5,14.0,29.79,NNW,337,0.0,0.0,52,0.00,,,0.00,meteohub,2013-03-14 02:40:00,
2013-03-13 22:45:00,29.5,14.5,29.79,NNW,337,0.0,0.0,53,0.00,,,0.00,meteohub,2013-03-14 02:45:00,
2013-03-13 22:50:00,29.3,13.8,29.79,NNW,337,0.0,0.0,52,0.00,,,0.00,meteohub,2013-03-14 02:50:00,
2013-03-13 22:55:00,29.1,13.6,29.79,NNW,337,0.0,0.0,52,0.00,,,0.00,meteohub,2013-03-14 02:55:00,
2013-03-13 23:00:00,28.9,13.5,29.79,NNW,337,0.0,0.0,52,0.00,,,0.00,meteohub,2013-03-14 03:00:00,
2013-03-13 23:05:00,29.1,14.2,29.79,NNW,337,0.0,0.0,53,0.00,,,0.00,meteohub,2013-03-14 03:05:00,
2013-03-13 23:10:00,29.1,14.2,29.79,NNW,337,0.0,0.0,53,0.00,,,0.00,meteohub,2013-03-14 03:10:00,
2013-03-13 23:15:00,28.9,14.0,29.79,NNW,337,0.0,0.0,53,0.00,,,0.00,meteohub,2013-03-14 03:15:00,
2013-03-13 23:20:00,28.8,13.8,29.79,NNW,337,0.0,0.0,53,0.00,,,0.00,meteohub,2013-03-14 03:20:00,
2013-03-13 23:25:00,28.8,13.8,29.79,NNW,337,0.0,0.0,53,0.00,,,0.00,meteohub,2013-03-14 03:25:00,
2013-03-13 23:30:00,28.8,13.8,29.79,NNW,337,0.0,0.0,53,0.00,,,0.00,meteohub,2013-03-14 03:30:00,
2013-03-13 23:35:00,28.6,13.6,29.79,NNW,337,0.0,0.0,53,0.00,,,0.00,meteohub,2013-03-14 03:35:00,
2013-03-13 23:40:00,28.4,13.8,29.79,NNW,337,0.0,0.0,54,0.00,,,0.00,meteohub,2013-03-14 03:40:00,
2013-03-13 23:45:00,28.6,14.0,29.79,NNW,337,0.0,0.0,54,0.00,,,0.00,meteohub,2013-03-14 03:45:00,
2013-03-13 23:50:00,28.6,14.0,29.79,NNW,337,0.0,0.0,54,0.00,,,0.00,meteohub,2013-03-14 03:50:00,
2013-03-13 23:55:00,28.6,14.0,29.79,NNW,337,0.0,0.0,54,0.00,,,0.00,meteohub,2013-03-14 03:55:00,